createdAt,value
2022-12-23T00:00:42.788Z,100001.78
2022-12-23T00:03:06.891Z,99998.97
2022-12-23T00:05:37.530Z,99993.38
2022-12-23T00:08:01.667Z,100000.34
2022-12-23T00:10:25.259Z,100000.81
2022-12-23T00:13:07.885Z,99998.75
2022-12-23T00:15:31.548Z,99989.66
2022-12-23T00:17:55.193Z,99987.75
2022-12-23T00:20:18.923Z,99986.75
2022-12-23T00:22:57.061Z,99983.38
2022-12-23T00:25:40.145Z,99988.44
2022-12-23T00:28:06.344Z,99983.38
2022-12-23T00:30:30.380Z,99980.22
2022-12-23T00:32:54.046Z,99978.16
2022-12-23T00:35:17.920Z,99982.03
2022-12-23T00:37:41.604Z,99961.81
2022-12-23T00:40:23.516Z,99957.56
2022-12-23T00:42:56.275Z,99960.69
2022-12-23T00:45:21.833Z,99960.22
2022-12-23T00:48:03.850Z,99954.78
2022-12-23T00:50:28.227Z,99946.75
2022-12-23T00:52:51.854Z,99944.66
2022-12-23T00:55:15.619Z,99947.50
2022-12-23T00:57:39.230Z,99942.41
2022-12-23T01:00:02.898Z,99958.16
2022-12-23T01:02:45.228Z,99951.25
2022-12-23T01:05:29.923Z,99947.38
2022-12-23T01:07:53.652Z,99946.78
2022-12-23T01:10:17.427Z,99932.22
2022-12-23T01:12:41.146Z,99922.28
2022-12-23T01:15:05.123Z,99922.75
2022-12-23T01:17:30.139Z,99929.31
2022-12-23T01:19:53.781Z,99931.75
2022-12-23T01:22:17.477Z,99926.03
2022-12-23T01:24:41.098Z,99927.84
2022-12-23T01:27:04.891Z,99925.69
2022-12-23T01:29:29.873Z,99928.72
2022-12-23T01:31:53.628Z,99920.84
2022-12-23T01:34:18.939Z,99925.16
2022-12-23T01:36:42.640Z,99926.78
2022-12-23T01:39:06.341Z,99926.66
2022-12-23T01:41:50.306Z,99930.06
2022-12-23T01:45:06.526Z,99920.47
2022-12-23T01:47:39.037Z,99916.69
2022-12-23T01:50:11.379Z,99919.84
2022-12-23T01:52:42.390Z,99915.22
2022-12-23T01:55:07.029Z,99922.03
2022-12-23T01:57:31.172Z,99918.16
2022-12-23T02:00:12.626Z,99916.56
2022-12-23T02:02:55.921Z,99902.00
2022-12-23T02:05:21.211Z,99904.06
2022-12-23T02:08:02.606Z,99902.22
2022-12-23T02:10:33.362Z,99899.22
2022-12-23T02:13:03.340Z,99893.75
2022-12-23T02:15:53.543Z,99896.41
2022-12-23T02:18:50.657Z,99884.66
2022-12-23T02:21:33.840Z,99882.22
2022-12-23T02:24:47.110Z,99882.59
2022-12-23T02:27:16.751Z,99890.59
2022-12-23T02:30:34.057Z,99879.41
2022-12-23T02:33:29.926Z,99877.13
2022-12-23T02:36:19.086Z,99874.81
2022-12-23T02:39:01.259Z,99877.50
2022-12-23T02:41:34.659Z,99868.16
2022-12-23T02:44:03.767Z,99863.03
2022-12-23T02:46:34.668Z,99854.78
2022-12-23T02:49:03.194Z,99856.22
2022-12-23T02:51:33.285Z,99849.44
2022-12-23T02:54:00.975Z,99849.91
2022-12-23T02:56:27.119Z,99838.03
2022-12-23T02:58:57.667Z,99842.63
2022-12-23T03:01:22.323Z,99839.28
2022-12-23T03:03:48.963Z,99841.44
2022-12-23T03:06:22.030Z,99840.19
2022-12-23T03:08:46.673Z,99824.06
2022-12-23T03:11:14.224Z,99832.31
2022-12-23T03:14:04.810Z,99833.38
2022-12-23T03:16:37.879Z,99842.13
2022-12-23T03:19:17.651Z,99840.03
2022-12-23T03:21:47.970Z,99836.69
2022-12-23T03:24:23.360Z,99835.66
2022-12-23T03:26:55.863Z,99835.44
2022-12-23T03:29:27.426Z,99827.56
2022-12-23T03:31:52.142Z,99827.56
2022-12-23T03:34:22.861Z,99824.75
2022-12-23T03:36:53.026Z,99834.91
2022-12-23T03:39:22.264Z,99836.47
2022-12-23T03:41:52.598Z,99830.41
2022-12-23T03:44:22.233Z,99829.22
2022-12-23T03:46:51.794Z,99821.69
2022-12-23T03:49:22.133Z,99822.38
2022-12-23T03:51:54.015Z,99825.53
2022-12-23T03:54:25.424Z,99827.09
2022-12-23T03:56:55.413Z,99815.31
2022-12-23T03:59:23.293Z,99815.25
2022-12-23T04:01:58.585Z,99813.75
2022-12-23T04:04:29.374Z,99809.97
2022-12-23T04:06:58.917Z,99811.41
2022-12-23T04:09:24.607Z,99811.88
2022-12-23T04:11:49.296Z,99810.91
2022-12-23T04:14:18.206Z,99809.38
2022-12-23T04:16:42.186Z,99811.91
2022-12-23T04:19:05.841Z,99804.22
2022-12-23T04:21:30.896Z,99805.66
2022-12-23T04:23:54.513Z,99806.38
2022-12-23T04:26:18.180Z,99798.22
2022-12-23T04:28:41.872Z,99798.22
2022-12-23T04:31:05.974Z,99809.78
2022-12-23T04:33:29.682Z,99808.81
2022-12-23T04:35:53.362Z,99812.31
2022-12-23T04:38:18.420Z,99800.41
2022-12-23T04:40:42.084Z,99810.22
2022-12-23T04:43:05.728Z,99806.00
2022-12-23T04:45:29.378Z,99801.25
2022-12-23T04:47:54.492Z,99803.56
2022-12-23T04:50:18.764Z,99801.09
2022-12-23T04:52:42.561Z,99799.69
2022-12-23T04:55:09.009Z,99795.91
2022-12-23T04:57:32.643Z,99798.72
2022-12-23T04:59:56.298Z,99800.41
2022-12-23T05:02:19.993Z,99810.56
2022-12-23T05:04:43.999Z,99803.38
2022-12-23T05:07:08.543Z,99806.00
2022-12-23T05:09:32.302Z,99801.69
2022-12-23T05:11:57.357Z,99794.53
2022-12-23T05:14:21.000Z,99799.50
2022-12-23T05:16:44.765Z,99803.44
2022-12-23T05:19:08.894Z,99804.44
2022-12-23T05:21:32.687Z,99803.59
2022-12-23T05:23:57.006Z,99807.56
2022-12-23T05:26:20.842Z,99804.03
2022-12-23T05:28:46.193Z,99797.25
2022-12-23T05:31:10.320Z,99799.53
2022-12-23T05:33:35.318Z,99792.50
2022-12-23T05:35:59.451Z,99791.25
2022-12-23T05:38:23.202Z,99795.41
2022-12-23T05:40:46.977Z,99793.63
2022-12-23T05:43:10.729Z,99796.88
2022-12-23T05:45:39.038Z,99800.28
2022-12-23T05:48:02.724Z,99802.81
2022-12-23T05:50:26.480Z,99798.44
2022-12-23T05:52:50.418Z,99802.22
2022-12-23T05:55:14.174Z,99789.09
2022-12-23T05:57:37.857Z,99796.72
2022-12-23T06:00:01.502Z,99795.94
2022-12-23T06:02:26.765Z,99793.03
2022-12-23T06:04:50.599Z,99793.47
2022-12-23T06:07:14.251Z,99803.91
2022-12-23T06:09:37.892Z,99806.44
2022-12-23T06:12:01.742Z,99810.44
2022-12-23T06:14:29.057Z,99817.34
2022-12-23T06:16:53.240Z,99819.88
2022-12-23T06:19:18.743Z,99815.38
2022-12-23T06:21:42.417Z,99818.91
2022-12-23T06:24:07.129Z,99819.88
2022-12-23T06:26:30.829Z,99821.56
2022-12-23T06:28:54.602Z,99829.41
2022-12-23T06:31:18.535Z,99837.41
2022-12-23T06:33:42.233Z,99835.34
2022-12-23T06:36:09.506Z,99841.53
2022-12-23T06:38:33.154Z,99842.81
2022-12-23T06:40:56.835Z,99842.13
2022-12-23T06:43:20.632Z,99849.28
2022-12-23T06:45:48.304Z,99852.88
2022-12-23T06:48:11.948Z,99863.78
2022-12-23T06:50:35.588Z,99866.84
2022-12-23T06:53:00.653Z,99870.97
2022-12-23T06:55:24.336Z,99877.00
2022-12-23T06:57:47.956Z,99876.03
2022-12-23T07:00:13.509Z,99881.78
2022-12-23T07:02:37.277Z,99882.16
2022-12-23T07:05:00.996Z,99884.97
2022-12-23T07:07:24.591Z,99881.53
2022-12-23T07:09:49.634Z,99875.78
2022-12-23T07:12:13.303Z,99886.88
2022-12-23T07:14:36.883Z,99879.81
2022-12-23T07:17:00.556Z,99878.13
2022-12-23T07:19:24.150Z,99887.97
2022-12-23T07:21:47.782Z,99890.19
2022-12-23T07:24:11.974Z,99890.78
2022-12-23T07:26:37.094Z,99886.28
2022-12-23T07:29:00.791Z,99887.91
2022-12-23T07:31:24.711Z,99899.50
2022-12-23T07:33:48.420Z,99898.16
2022-12-23T07:36:12.230Z,99897.75
2022-12-23T07:38:35.899Z,99900.31
2022-12-23T07:40:59.635Z,99906.63
2022-12-23T07:43:24.721Z,99907.88
2022-12-23T07:45:52.542Z,99914.44
2022-12-23T07:48:19.443Z,99907.50
2022-12-23T07:50:43.104Z,99897.38
2022-12-23T07:53:06.892Z,99891.44
2022-12-23T07:55:30.559Z,99903.84
2022-12-23T07:57:54.888Z,99910.75
2022-12-23T08:00:21.989Z,99915.97
2022-12-23T08:02:46.017Z,99929.94
2022-12-23T08:05:11.071Z,99921.91
2022-12-23T08:07:34.950Z,99922.88
2022-12-23T08:09:58.552Z,99933.31
2022-12-23T08:12:22.326Z,99932.34
2022-12-23T08:14:45.996Z,99921.44
2022-12-23T08:17:11.175Z,99927.81
2022-12-23T08:19:34.900Z,99923.16
2022-12-23T08:21:58.656Z,99929.91
2022-12-23T08:24:22.329Z,99929.19
2022-12-23T08:26:46.113Z,99935.81
2022-12-23T08:29:09.682Z,99937.22
2022-12-23T08:31:33.588Z,99937.75
2022-12-23T08:34:00.386Z,99939.09
2022-12-23T08:36:26.658Z,99939.25
2022-12-23T08:38:50.694Z,99943.06
2022-12-23T08:41:17.929Z,99944.28
2022-12-23T08:43:42.156Z,99950.06
2022-12-23T08:46:07.087Z,99945.59
2022-12-23T08:48:30.885Z,99947.09
2022-12-23T08:50:56.016Z,99948.78
2022-12-23T08:53:19.665Z,99935.72
2022-12-23T08:55:48.305Z,99948.53
2022-12-23T08:58:14.278Z,99960.66
2022-12-23T09:00:39.024Z,99954.19
2022-12-23T09:03:03.074Z,99954.00
2022-12-23T09:05:27.150Z,99965.81
2022-12-23T09:07:52.213Z,99972.78
2022-12-23T09:10:16.344Z,99989.81
2022-12-23T09:12:39.969Z,99983.59
2022-12-23T09:15:03.664Z,99983.75
2022-12-23T09:17:28.168Z,99992.63
2022-12-23T09:19:53.126Z,99998.75
2022-12-23T09:22:16.975Z,100001.63
2022-12-23T09:24:42.114Z,100008.91
2022-12-23T09:27:05.805Z,100013.63
2022-12-23T09:29:29.511Z,100017.78
2022-12-23T09:31:53.199Z,100024.09
2022-12-23T09:34:16.859Z,100028.53
2022-12-23T09:36:40.656Z,100034.63
2022-12-23T09:39:04.975Z,100037.97
2022-12-23T09:41:53.627Z,100049.19
2022-12-23T09:44:36.128Z,100046.91
2022-12-23T09:47:04.049Z,100041.13
2022-12-23T09:49:28.765Z,100036.19
2022-12-23T09:52:00.220Z,100047.09
2022-12-23T09:54:26.648Z,100064.72
2022-12-23T09:56:56.243Z,100063.91
2022-12-23T09:59:37.484Z,100054.56
2022-12-23T10:02:20.411Z,100053.72
2022-12-23T10:04:55.339Z,100052.44
2022-12-23T10:07:32.969Z,100054.03
2022-12-23T10:09:58.283Z,100055.53
2022-12-23T10:12:39.125Z,100058.59
2022-12-23T10:15:12.766Z,100061.94
2022-12-23T10:17:41.628Z,100068.84
2022-12-23T10:20:07.773Z,100067.53
2022-12-23T10:22:39.284Z,100069.97
2022-12-23T10:25:05.751Z,100065.06
2022-12-23T10:27:34.159Z,100066.91
2022-12-23T10:30:19.921Z,100068.38
2022-12-23T10:33:06.318Z,100062.00
2022-12-23T10:35:47.460Z,100057.06
2022-12-23T10:38:27.770Z,100066.09
2022-12-23T10:41:03.904Z,100063.31
2022-12-23T10:43:46.257Z,100054.91
2022-12-23T10:46:23.763Z,100053.75
2022-12-23T10:49:01.578Z,100042.69
2022-12-23T10:51:30.593Z,100043.91
2022-12-23T10:53:57.857Z,100046.53
2022-12-23T10:56:23.074Z,100046.53
2022-12-23T10:58:54.320Z,100054.59
2022-12-23T11:01:26.462Z,100059.56
2022-12-23T11:04:03.455Z,100055.91
2022-12-23T11:06:34.875Z,100055.28
2022-12-23T11:09:03.892Z,100063.88
2022-12-23T11:11:54.816Z,100058.19
2022-12-23T11:14:35.673Z,100066.38
2022-12-23T11:17:00.380Z,100067.16
2022-12-23T11:19:24.594Z,100065.78
2022-12-23T11:21:56.404Z,100062.03
2022-12-23T11:24:22.339Z,100066.66
2022-12-23T11:26:49.209Z,100077.00
2022-12-23T11:29:18.297Z,100077.34
2022-12-23T11:31:45.517Z,100071.91
2022-12-23T11:34:17.447Z,100076.75
2022-12-23T11:36:41.204Z,100080.59
2022-12-23T11:39:09.260Z,100080.63
2022-12-23T11:41:39.503Z,100079.13
2022-12-23T11:44:08.816Z,100079.03
2022-12-23T11:46:35.956Z,100070.22
2022-12-23T11:49:18.873Z,100077.53
2022-12-23T11:51:42.643Z,100086.38
2022-12-23T11:54:06.435Z,100087.56
2022-12-23T11:56:36.535Z,100078.66
2022-12-23T11:59:07.688Z,100085.63
2022-12-23T12:01:31.441Z,100095.56
2022-12-23T12:04:00.247Z,100097.56
2022-12-23T12:06:25.588Z,100101.63
2022-12-23T12:08:52.441Z,100101.50
2022-12-23T12:11:20.469Z,100111.91
2022-12-23T12:13:46.726Z,100107.84
2022-12-23T12:16:41.174Z,100111.38
2022-12-23T12:19:12.073Z,100112.28
2022-12-23T12:21:40.317Z,100114.44
2022-12-23T12:24:18.283Z,100101.03
2022-12-23T12:26:44.101Z,100105.16
2022-12-23T12:29:16.972Z,100093.59
2022-12-23T12:31:45.273Z,100099.53
2022-12-23T12:34:28.534Z,100109.59
2022-12-23T12:37:01.535Z,100106.31
2022-12-23T12:39:31.387Z,100103.53
2022-12-23T12:42:05.279Z,100092.94
2022-12-23T12:44:39.348Z,100098.09
2022-12-23T12:47:28.565Z,100095.25
2022-12-23T12:50:02.217Z,100090.22
2022-12-23T12:52:29.433Z,100092.84
2022-12-23T12:54:59.607Z,100096.53
2022-12-23T12:57:25.585Z,100098.03
2022-12-23T12:59:52.855Z,100088.84
2022-12-23T13:02:47.876Z,100086.47
2022-12-23T13:05:34.035Z,100088.91
2022-12-23T13:08:20.420Z,100097.53
2022-12-23T13:10:48.675Z,100105.63
2022-12-23T13:13:30.420Z,100095.81
2022-12-23T13:16:02.692Z,100102.63
2022-12-23T13:18:42.907Z,100087.72
2022-12-23T13:21:15.223Z,100082.63
2022-12-23T13:23:50.632Z,100080.25
2022-12-23T13:26:28.531Z,100075.19
2022-12-23T13:29:05.011Z,100067.03
2022-12-23T13:31:42.336Z,100063.06
2022-12-23T13:34:22.854Z,100057.88
2022-12-23T13:36:55.301Z,100063.38
2022-12-23T13:39:36.847Z,100064.56
2022-12-23T13:42:05.998Z,100061.69
2022-12-23T13:44:32.055Z,100057.84
2022-12-23T13:47:08.459Z,100050.13
2022-12-23T13:49:47.131Z,100048.03
2022-12-23T13:52:16.314Z,100050.25
2022-12-23T13:54:53.923Z,100046.78
2022-12-23T13:57:35.764Z,100049.25
2022-12-23T14:00:06.645Z,100049.22
2022-12-23T14:02:52.288Z,100049.50
2022-12-23T14:05:35.982Z,100050.06
2022-12-23T14:08:02.986Z,100057.16
2022-12-23T14:10:28.943Z,100056.38
2022-12-23T14:12:58.791Z,100055.56
2022-12-23T14:15:47.647Z,100043.84
2022-12-23T14:18:39.671Z,100047.31
2022-12-23T14:21:14.377Z,100042.22
2022-12-23T14:24:02.476Z,100055.75
2022-12-23T14:26:52.195Z,100052.75
2022-12-23T14:29:46.746Z,100052.94
2022-12-23T14:32:22.827Z,100050.50
2022-12-23T14:35:17.378Z,100056.00
2022-12-23T14:37:42.034Z,100055.44
2022-12-23T14:41:06.770Z,100061.06
2022-12-23T14:43:55.717Z,100068.38
2022-12-23T14:46:59.409Z,100073.81
2022-12-23T14:49:41.248Z,100063.88
2022-12-23T14:53:00.383Z,100063.16
2022-12-23T14:55:44.871Z,100064.66
2022-12-23T14:58:25.102Z,100074.28
2022-12-23T15:00:56.428Z,100078.72
2022-12-23T15:03:21.861Z,100086.66
2022-12-23T15:05:45.933Z,100084.34
2022-12-23T15:08:29.904Z,100078.72
2022-12-23T15:10:53.724Z,100078.69
2022-12-23T15:13:20.763Z,100086.34
2022-12-23T15:16:00.883Z,100089.00
2022-12-23T15:18:26.830Z,100091.16
2022-12-23T15:21:01.235Z,100078.63
2022-12-23T15:23:24.901Z,100085.03
2022-12-23T15:25:50.371Z,100075.72
2022-12-23T15:28:20.982Z,100085.16
2022-12-23T15:30:53.037Z,100085.47
2022-12-23T15:34:00.803Z,100076.53
2022-12-23T15:36:07.895Z,100087.16
2022-12-23T15:38:36.374Z,100085.34
2022-12-23T15:41:03.099Z,100087.69
2022-12-23T15:43:26.785Z,100085.25
2022-12-23T15:45:52.447Z,100080.38
2022-12-23T15:48:27.382Z,100082.88
2022-12-23T15:50:55.340Z,100076.91
2022-12-23T15:53:20.443Z,100068.66
2022-12-23T15:55:44.233Z,100072.66
2022-12-23T15:58:07.895Z,100075.78
2022-12-23T16:00:38.057Z,100073.41
2022-12-23T16:03:05.612Z,100078.59
2022-12-23T16:05:35.922Z,100079.06
2022-12-23T16:08:26.564Z,100082.56
2022-12-23T16:11:07.576Z,100091.34
2022-12-23T16:13:31.270Z,100092.09
2022-12-23T16:15:55.158Z,100091.72
2022-12-23T16:18:25.676Z,100096.38
2022-12-23T16:20:53.648Z,100096.22
2022-12-23T16:23:18.829Z,100089.03
2022-12-23T16:25:50.842Z,100088.97
2022-12-23T16:28:23.013Z,100089.16
2022-12-23T16:30:49.781Z,100096.25
2022-12-23T16:33:36.505Z,100092.97
2022-12-23T16:36:20.929Z,100084.78
2022-12-23T16:38:45.228Z,100080.63
2022-12-23T16:41:08.794Z,100075.66
2022-12-23T16:43:32.803Z,100078.22
2022-12-23T16:45:59.054Z,100085.53
2022-12-23T16:48:31.096Z,100084.78
2022-12-23T16:50:55.658Z,100090.75
2022-12-23T16:53:19.257Z,100085.53
2022-12-23T16:55:50.231Z,100080.41
2022-12-23T16:58:16.292Z,100073.13
2022-12-23T17:00:40.871Z,100069.47
2022-12-23T17:03:05.855Z,100065.53
2022-12-23T17:05:30.831Z,100060.91
2022-12-23T17:07:54.637Z,100054.00
2022-12-23T17:10:19.561Z,100051.56
2022-12-23T17:12:44.228Z,100038.09
2022-12-23T17:15:09.697Z,100034.41
2022-12-23T17:17:33.763Z,100032.84
2022-12-23T17:19:57.715Z,100032.97
2022-12-23T17:22:22.818Z,100031.28
2022-12-23T17:24:46.445Z,100025.69
2022-12-23T17:27:16.403Z,100022.78
2022-12-23T17:29:40.110Z,100025.19
2022-12-23T17:32:03.746Z,100025.94
2022-12-23T17:34:27.471Z,100019.84
2022-12-23T17:36:51.641Z,100015.22
2022-12-23T17:39:18.184Z,100012.81
2022-12-23T17:41:42.859Z,100012.53
2022-12-23T17:44:07.368Z,100012.16
2022-12-23T17:46:31.179Z,100014.09
2022-12-23T17:48:57.129Z,100003.94
2022-12-23T17:51:23.449Z,100004.66
2022-12-23T17:53:53.332Z,100005.56
2022-12-23T17:56:23.486Z,100003.59
2022-12-23T17:58:50.819Z,100000.81
2022-12-23T18:01:19.572Z,100004.78
2022-12-23T18:03:43.313Z,99995.16
2022-12-23T18:06:12.328Z,100001.38
2022-12-23T18:08:35.915Z,100006.47
2022-12-23T18:11:00.853Z,99999.16
2022-12-23T18:13:25.901Z,99997.22
2022-12-23T18:15:49.594Z,100000.53
2022-12-23T18:18:20.497Z,99996.56
2022-12-23T18:20:53.692Z,99992.78
2022-12-23T18:23:23.645Z,99994.34
2022-12-23T18:25:47.360Z,99992.81
2022-12-23T18:28:12.517Z,99989.31
2022-12-23T18:30:38.114Z,99988.91
2022-12-23T18:33:01.698Z,99986.56
2022-12-23T18:35:29.984Z,99985.13
2022-12-23T18:37:54.307Z,99978.22
2022-12-23T18:40:18.237Z,99981.59
2022-12-23T18:42:41.874Z,99984.25
2022-12-23T18:45:22.360Z,99983.03
2022-12-23T18:47:47.408Z,99980.50
2022-12-23T18:50:12.417Z,99980.38
2022-12-23T18:52:36.084Z,99981.72
2022-12-23T18:54:59.650Z,99987.66
2022-12-23T18:57:23.350Z,99989.16
2022-12-23T18:59:46.964Z,99990.50
2022-12-23T19:02:15.334Z,99990.78
2022-12-23T19:04:40.359Z,99986.03
2022-12-23T19:07:04.056Z,99988.19
2022-12-23T19:09:28.123Z,99984.34
2022-12-23T19:11:54.000Z,99982.13
2022-12-23T19:14:17.866Z,99983.22
2022-12-23T19:16:46.165Z,99978.00
2022-12-23T19:19:15.224Z,99980.16
2022-12-23T19:21:40.410Z,99985.06
2022-12-23T19:24:04.953Z,99977.88
2022-12-23T19:26:28.697Z,99975.34
2022-12-23T19:28:52.489Z,99975.38
2022-12-23T19:31:18.310Z,99979.16
2022-12-23T19:33:44.084Z,99975.94
2022-12-23T19:36:11.819Z,99973.00
2022-12-23T19:38:37.039Z,99974.56
2022-12-23T19:41:00.753Z,99972.09
2022-12-23T19:43:24.424Z,99971.59
2022-12-23T19:45:57.919Z,99972.91
2022-12-23T19:48:21.648Z,99975.22
2022-12-23T19:50:45.297Z,99975.13
2022-12-23T19:53:08.921Z,99975.50
2022-12-23T19:55:33.933Z,99974.91
2022-12-23T19:57:57.602Z,99966.00
2022-12-23T20:00:21.318Z,99965.91
2022-12-23T20:02:44.995Z,99963.09
2022-12-23T20:05:10.538Z,99964.34
2022-12-23T20:07:36.354Z,99964.56
2022-12-23T20:10:00.012Z,99957.16
2022-12-23T20:12:26.489Z,99954.78
2022-12-23T20:14:50.367Z,99950.56
2022-12-23T20:17:14.140Z,99939.34
2022-12-23T20:19:45.482Z,99940.34
2022-12-23T20:22:09.701Z,99938.88
2022-12-23T20:24:35.559Z,99943.13
2022-12-23T20:26:59.377Z,99941.69
2022-12-23T20:29:24.453Z,99934.22
2022-12-23T20:31:48.204Z,99933.06
2022-12-23T20:34:17.705Z,99924.97
2022-12-23T20:36:41.491Z,99921.75
2022-12-23T20:39:06.367Z,99922.34
2022-12-23T20:41:31.958Z,99920.03
2022-12-23T20:44:32.389Z,99918.63
2022-12-23T20:46:41.364Z,99918.84
2022-12-23T20:49:05.347Z,99922.47
2022-12-23T20:51:29.113Z,99923.22
2022-12-23T20:53:54.250Z,99924.91
2022-12-23T20:56:20.359Z,99922.94
2022-12-23T20:58:57.819Z,99925.38
2022-12-23T21:01:22.267Z,99920.25
2022-12-23T21:03:47.428Z,99926.25
2022-12-23T21:06:11.428Z,99926.94
2022-12-23T21:08:35.175Z,99917.81
2022-12-23T21:10:59.450Z,99913.94
2022-12-23T21:13:23.122Z,99915.00
2022-12-23T21:15:46.813Z,99914.31
2022-12-23T21:18:10.411Z,99915.59
2022-12-23T21:20:38.043Z,99920.88
2022-12-23T21:23:01.653Z,99914.16
2022-12-23T21:25:25.269Z,99915.91
2022-12-23T21:27:48.947Z,99920.66
2022-12-23T21:30:13.503Z,99920.41
2022-12-23T21:32:37.132Z,99913.03
2022-12-23T21:35:01.735Z,99912.63
2022-12-23T21:37:27.414Z,99909.13
2022-12-23T21:39:51.095Z,99908.25
2022-12-23T21:42:14.732Z,99908.63
2022-12-23T21:44:38.417Z,99910.31
2022-12-23T21:47:02.061Z,99911.75
2022-12-23T21:49:25.791Z,99906.50
2022-12-23T21:51:49.621Z,99902.41
2022-12-23T21:54:14.720Z,99904.53
2022-12-23T21:56:38.607Z,99908.06
2022-12-23T21:59:06.137Z,99901.13
2022-12-23T22:01:30.581Z,99909.38
2022-12-23T22:03:55.839Z,99909.81
2022-12-23T22:06:21.824Z,99900.81
2022-12-23T22:08:45.659Z,99900.09
2022-12-23T22:11:13.372Z,99903.28
2022-12-23T22:13:37.443Z,99891.38
2022-12-23T22:16:01.189Z,99902.53
2022-12-23T22:18:24.878Z,99899.03
2022-12-23T22:20:48.489Z,99900.66
2022-12-23T22:23:12.320Z,99898.25
2022-12-23T22:25:36.104Z,99892.50
2022-12-23T22:28:01.337Z,99890.84
2022-12-23T22:30:24.937Z,99892.63
2022-12-23T22:32:48.603Z,99886.50
2022-12-23T22:35:12.488Z,99891.16
2022-12-23T22:37:36.133Z,99881.91
2022-12-23T22:39:59.803Z,99892.97
2022-12-23T22:42:23.448Z,99899.91
2022-12-23T22:44:48.502Z,99890.97
2022-12-23T22:47:12.298Z,99896.91
2022-12-23T22:49:35.939Z,99894.59
2022-12-23T22:51:59.638Z,99895.69
2022-12-23T22:54:23.256Z,99889.75
2022-12-23T22:56:46.987Z,99884.41
2022-12-23T22:59:20.409Z,99889.97
2022-12-23T23:01:45.646Z,99892.03
2022-12-23T23:04:10.563Z,99896.19
2022-12-23T23:06:38.115Z,99886.22
2022-12-23T23:09:02.517Z,99895.34
2022-12-23T23:11:28.108Z,99896.78
2022-12-23T23:13:52.142Z,99894.47
2022-12-23T23:16:15.961Z,99898.34
2022-12-23T23:18:41.037Z,99896.03
2022-12-23T23:21:04.903Z,99905.66
2022-12-23T23:23:28.727Z,99901.53
2022-12-23T23:25:52.416Z,99902.50
2022-12-23T23:28:16.575Z,99903.22
2022-12-23T23:30:41.069Z,99902.13
2022-12-23T23:33:04.775Z,99900.19
2022-12-23T23:35:29.771Z,99904.78
2022-12-23T23:37:53.570Z,99909.06
2022-12-23T23:40:17.418Z,99907.84
2022-12-23T23:42:40.997Z,99909.63
2022-12-23T23:45:05.112Z,99913.41
2022-12-23T23:47:34.399Z,99912.06
2022-12-23T23:49:58.098Z,99919.84
2022-12-23T23:52:23.113Z,99915.72
2022-12-23T23:54:46.791Z,99919.38
2022-12-23T23:57:10.837Z,99927.84
2022-12-23T23:59:34.496Z,99927.63
